createdAt,value
2022-12-08T00:04:18.893Z,60.11
2022-12-08T00:09:22.212Z,60.62
2022-12-08T00:14:28.528Z,60.74
2022-12-08T00:19:32.311Z,60.40
2022-12-08T00:24:39.763Z,60.80
2022-12-08T00:29:45.798Z,61.46
2022-12-08T00:34:49.217Z,60.94
2022-12-08T00:39:52.225Z,60.82
2022-12-08T00:44:55.231Z,60.11
2022-12-08T00:49:58.233Z,63.53
2022-12-08T00:55:01.240Z,63.40
2022-12-08T01:00:05.270Z,61.56
2022-12-08T01:05:08.792Z,60.88
2022-12-08T01:10:11.696Z,60.29
2022-12-08T01:15:14.503Z,60.47
2022-12-08T01:20:17.605Z,63.97
2022-12-08T01:25:20.509Z,63.18
2022-12-08T01:30:23.630Z,62.11
2022-12-08T01:35:26.730Z,61.65
2022-12-08T01:40:29.731Z,60.58
2022-12-08T01:45:33.249Z,59.47
2022-12-08T01:50:37.566Z,60.34
2022-12-08T01:55:55.335Z,64.19
2022-12-08T02:00:58.489Z,62.31
2022-12-08T02:06:03.124Z,61.62
2022-12-08T02:11:09.638Z,60.68
2022-12-08T02:16:38.765Z,61.05
2022-12-08T02:21:51.945Z,60.48
2022-12-08T02:27:13.802Z,60.93
2022-12-08T02:32:37.075Z,61.22
2022-12-08T02:38:02.000Z,61.04
2022-12-08T02:43:16.779Z,61.41
2022-12-08T02:48:19.886Z,61.43
2022-12-08T02:53:22.902Z,62.14
2022-12-08T02:58:50.579Z,62.04
2022-12-08T03:04:14.781Z,62.14
2022-12-08T03:09:24.791Z,62.70
2022-12-08T03:14:30.015Z,61.71
2022-12-08T03:19:38.955Z,61.15
2022-12-08T03:24:45.444Z,60.56
2022-12-08T03:29:51.012Z,60.84
2022-12-08T03:34:56.065Z,60.95
2022-12-08T03:39:58.969Z,61.49
2022-12-08T03:45:01.976Z,63.01
2022-12-08T03:50:06.381Z,62.97
2022-12-08T03:55:10.241Z,63.71
2022-12-08T04:00:16.113Z,63.23
2022-12-08T04:05:19.020Z,63.54
2022-12-08T04:10:22.126Z,64.43
2022-12-08T04:15:25.134Z,64.16
2022-12-08T04:20:28.036Z,64.01
2022-12-08T04:25:30.941Z,64.76
2022-12-08T04:30:34.619Z,63.82
2022-12-08T04:35:37.567Z,64.08
2022-12-08T04:40:40.882Z,63.89
2022-12-08T04:45:43.888Z,63.39
2022-12-08T04:50:46.994Z,63.29
2022-12-08T04:55:50.517Z,63.21
2022-12-08T05:00:53.613Z,63.00
2022-12-08T05:05:56.628Z,61.78
2022-12-08T05:11:07.917Z,62.14
2022-12-08T05:16:13.773Z,62.16
2022-12-08T05:21:16.914Z,61.88
2022-12-08T05:26:20.328Z,62.35
2022-12-08T05:31:23.501Z,62.70
2022-12-08T05:36:26.647Z,62.44
2022-12-08T05:41:29.760Z,61.39
2022-12-08T05:46:32.970Z,62.00
2022-12-08T05:51:35.976Z,61.47
2022-12-08T05:56:38.982Z,61.46
2022-12-08T06:01:42.789Z,61.23
2022-12-08T06:06:46.019Z,60.47
2022-12-08T06:11:49.330Z,60.66
2022-12-08T06:16:52.661Z,61.25
2022-12-08T06:21:55.693Z,60.62
2022-12-08T06:26:58.661Z,60.72
2022-12-08T06:32:01.836Z,60.59
2022-12-08T06:37:04.874Z,60.30
2022-12-08T06:42:26.487Z,59.95
2022-12-08T06:47:29.523Z,62.97
2022-12-08T06:52:32.733Z,63.89
2022-12-08T06:57:35.844Z,62.69
2022-12-08T07:02:39.048Z,61.98
2022-12-08T07:07:42.408Z,61.05
2022-12-08T07:12:45.890Z,60.69
2022-12-08T07:17:49.755Z,59.89
2022-12-08T07:22:54.867Z,59.30
2022-12-08T07:27:57.881Z,64.07
2022-12-08T07:33:03.544Z,62.29
2022-12-08T07:38:10.917Z,61.24
2022-12-08T07:43:13.863Z,60.47
2022-12-08T07:48:17.454Z,58.62
2022-12-08T07:53:20.421Z,63.53
2022-12-08T07:58:23.598Z,62.11
2022-12-08T08:03:26.803Z,60.97
2022-12-08T08:08:30.277Z,60.32
2022-12-08T08:13:33.438Z,59.35
2022-12-08T08:18:37.903Z,59.09
2022-12-08T08:23:41.086Z,64.25
2022-12-08T08:28:45.937Z,61.42
2022-12-08T08:33:49.864Z,59.81
2022-12-08T08:38:52.972Z,59.17
2022-12-08T08:43:55.979Z,63.71
2022-12-08T08:48:59.275Z,61.88
2022-12-08T08:54:02.300Z,60.10
2022-12-08T08:59:05.511Z,60.05
2022-12-08T09:04:10.421Z,62.62
2022-12-08T09:09:13.573Z,60.43
2022-12-08T09:14:16.682Z,59.83
2022-12-08T09:19:20.101Z,62.80
2022-12-08T09:24:23.403Z,61.03
2022-12-08T09:29:31.093Z,59.42
2022-12-08T09:34:37.507Z,60.82
2022-12-08T09:39:40.617Z,61.00
2022-12-08T09:44:52.428Z,59.22
2022-12-08T09:49:59.312Z,62.39
2022-12-08T09:55:10.121Z,59.20
2022-12-08T10:00:14.610Z,60.10
2022-12-08T10:05:17.617Z,62.81
2022-12-08T10:10:32.242Z,58.28
2022-12-08T10:15:48.329Z,58.88
2022-12-08T10:20:52.895Z,61.76
2022-12-08T10:26:01.943Z,61.33
2022-12-08T10:31:05.307Z,62.41
2022-12-08T10:36:11.442Z,60.35
2022-12-08T10:41:18.191Z,59.27
2022-12-08T10:46:26.073Z,61.94
2022-12-08T10:51:33.319Z,57.08
2022-12-08T10:56:36.297Z,57.80
2022-12-08T11:01:41.531Z,62.33
2022-12-08T11:06:45.647Z,59.18
2022-12-08T11:11:54.807Z,62.02
2022-12-08T11:17:17.069Z,59.36
2022-12-08T11:22:25.709Z,62.77
2022-12-08T11:27:29.021Z,62.35
2022-12-08T11:32:32.130Z,60.10
2022-12-08T11:37:41.280Z,59.47
2022-12-08T11:43:09.779Z,62.54
2022-12-08T11:48:19.575Z,61.50
2022-12-08T11:53:53.788Z,59.73
2022-12-08T11:59:02.328Z,61.07
2022-12-08T12:04:29.907Z,62.40
2022-12-08T12:10:00.765Z,60.15
2022-12-08T12:15:31.231Z,61.27
2022-12-08T12:20:42.617Z,62.89
2022-12-08T12:25:58.232Z,60.75
2022-12-08T12:31:06.624Z,60.37
2022-12-08T12:36:11.241Z,60.66
2022-12-08T12:41:19.737Z,60.79
2022-12-08T12:46:25.670Z,61.31
2022-12-08T12:51:42.364Z,61.42
2022-12-08T12:56:49.948Z,61.02
2022-12-08T13:01:55.927Z,61.99
2022-12-08T13:06:59.852Z,63.15
2022-12-08T13:12:12.587Z,63.71
2022-12-08T13:17:31.232Z,63.22
2022-12-08T13:22:54.036Z,63.38
2022-12-08T13:27:57.238Z,63.79
2022-12-08T13:33:18.431Z,64.26
2022-12-08T13:38:28.240Z,64.03
2022-12-08T13:43:51.325Z,65.26
2022-12-08T14:00:02.593Z,66.89
2022-12-08T14:05:18.161Z,67.58
2022-12-08T14:10:30.720Z,67.94
2022-12-08T14:15:38.417Z,67.58
2022-12-08T14:21:18.883Z,67.01
2022-12-08T14:26:06.117Z,66.69
2022-12-08T14:31:14.116Z,65.81
2022-12-08T14:36:20.231Z,65.58
2022-12-08T14:41:32.161Z,65.73
2022-12-08T14:46:35.221Z,66.54
2022-12-08T14:51:40.244Z,66.31
2022-12-08T14:56:54.894Z,66.38
2022-12-08T15:02:16.052Z,67.08
2022-12-08T15:07:23.786Z,67.45
2022-12-08T15:12:31.921Z,66.76
2022-12-08T15:17:36.443Z,66.47
2022-12-08T15:22:39.553Z,66.00
2022-12-08T15:27:50.203Z,65.76
2022-12-08T15:32:54.472Z,65.16
2022-12-08T15:37:57.544Z,65.55
2022-12-08T15:43:00.589Z,65.49
2022-12-08T15:48:04.102Z,65.74
2022-12-08T15:53:10.507Z,66.98
2022-12-08T16:09:37.106Z,66.27
2022-12-08T16:20:07.373Z,64.89
2022-12-08T16:25:21.768Z,65.05
2022-12-08T16:30:25.693Z,64.71
2022-12-08T16:35:29.128Z,64.49
2022-12-08T16:40:32.548Z,64.68
2022-12-08T16:45:41.513Z,64.73
2022-12-08T16:50:47.976Z,64.96
2022-12-08T16:55:51.394Z,65.50
2022-12-08T17:00:54.688Z,65.91
2022-12-08T17:05:58.330Z,66.38
2022-12-08T17:11:11.981Z,66.40
2022-12-08T17:16:19.377Z,66.61
2022-12-08T17:21:22.501Z,67.01
2022-12-08T17:26:25.547Z,66.25
2022-12-08T17:31:30.803Z,67.20
2022-12-08T17:36:34.387Z,66.50
2022-12-08T17:41:37.800Z,66.57
2022-12-08T17:46:46.383Z,67.18
2022-12-08T17:51:56.305Z,66.94
2022-12-08T17:56:59.618Z,67.27
2022-12-08T18:02:04.500Z,67.86
2022-12-08T18:07:07.600Z,68.01
2022-12-08T18:12:10.702Z,68.55
2022-12-08T18:17:14.857Z,67.71
2022-12-08T18:22:17.826Z,67.77
2022-12-08T18:27:20.832Z,67.72
2022-12-08T18:32:23.944Z,67.36
2022-12-08T18:37:27.149Z,67.47
2022-12-08T18:42:30.266Z,67.58
2022-12-08T18:47:40.440Z,67.59
2022-12-08T18:52:45.406Z,66.83
2022-12-08T18:57:49.013Z,66.45
2022-12-08T19:02:52.165Z,66.36
2022-12-08T19:07:55.414Z,66.32
2022-12-08T19:12:58.549Z,65.99
2022-12-08T19:18:02.057Z,65.83
2022-12-08T19:23:05.178Z,65.65
2022-12-08T19:28:08.299Z,65.87
2022-12-08T19:33:11.697Z,67.60
2022-12-08T19:38:15.540Z,67.92
2022-12-08T19:43:40.107Z,67.51
2022-12-08T19:48:43.768Z,67.62
2022-12-08T19:53:47.982Z,67.33
2022-12-08T19:58:51.207Z,67.88
2022-12-08T20:03:54.312Z,67.63
2022-12-08T20:08:57.523Z,66.74
2022-12-08T20:14:00.527Z,67.00
2022-12-08T20:19:04.430Z,66.47
2022-12-08T20:24:07.882Z,67.13
2022-12-08T20:29:11.905Z,67.13
2022-12-08T20:34:16.423Z,66.65
2022-12-08T20:39:19.566Z,66.72
2022-12-08T20:44:22.683Z,66.67
2022-12-08T20:49:29.834Z,67.41
2022-12-08T20:54:38.173Z,66.52
2022-12-08T20:59:41.225Z,66.73
2022-12-08T21:04:44.737Z,66.95
2022-12-08T21:09:48.042Z,68.02
2022-12-08T21:14:51.502Z,67.31
2022-12-08T21:19:54.863Z,67.10
2022-12-08T21:24:57.952Z,66.26
2022-12-08T21:30:01.121Z,66.08
2022-12-08T21:35:05.365Z,65.56
2022-12-08T21:40:09.422Z,64.64
2022-12-08T21:45:15.586Z,64.16
2022-12-08T21:50:19.014Z,64.25
2022-12-08T21:55:23.930Z,64.23
2022-12-08T22:00:27.051Z,63.80
2022-12-08T22:05:30.248Z,63.72
2022-12-08T22:10:33.629Z,63.66
2022-12-08T22:15:36.740Z,63.02
2022-12-08T22:20:43.917Z,63.09
2022-12-08T22:26:01.736Z,62.78
2022-12-08T22:31:12.917Z,62.78
2022-12-08T22:36:19.815Z,62.67
2022-12-08T22:41:23.849Z,62.48
2022-12-08T22:46:27.984Z,62.48
2022-12-08T22:51:31.024Z,62.42
2022-12-08T22:56:34.096Z,62.32
2022-12-08T23:01:37.078Z,62.07
2022-12-08T23:06:40.101Z,61.91
2022-12-08T23:11:44.207Z,62.35
2022-12-08T23:16:47.691Z,62.13
2022-12-08T23:21:50.887Z,62.04
2022-12-08T23:26:54.048Z,61.89
2022-12-08T23:31:57.394Z,61.79
2022-12-08T23:37:00.586Z,61.67
2022-12-08T23:42:04.112Z,61.36
2022-12-08T23:47:07.370Z,61.41
2022-12-08T23:52:13.765Z,61.24
2022-12-08T23:57:17.425Z,61.48
